sensor_id;sensor_type;location;lat;lon;timestamp;temperature;humidity
13123;DHT22;6627;50.920;12.050;2023-03-14T00:01:20;9.90;99.90
13123;DHT22;6627;50.920;12.050;2023-03-14T00:03:48;10.20;99.90
13123;DHT22;6627;50.920;12.050;2023-03-14T00:06:16;10.20;99.90
13123;DHT22;6627;50.920;12.050;2023-03-14T00:08:44;10.20;99.90
13123;DHT22;6627;50.920;12.050;2023-03-14T00:13:43;10.40;99.90
13123;DHT22;6627;50.920;12.050;2023-03-14T00:16:13;10.50;99.90
13123;DHT22;6627;50.920;12.050;2023-03-14T00:18:40;10.40;99.90
13123;DHT22;6627;50.920;12.050;2023-03-14T00:23:40;10.50;99.90
13123;DHT22;6627;50.920;12.050;2023-03-14T00:26:10;10.60;99.90
13123;DHT22;6627;50.920;12.050;2023-03-14T00:28:39;10.60;99.90
13123;DHT22;6627;50.920;12.050;2023-03-14T00:31:11;10.60;99.90
13123;DHT22;6627;50.920;12.050;2023-03-14T00:33:39;10.60;99.90
13123;DHT22;6627;50.920;12.050;2023-03-14T00:36:09;10.70;99.90
13123;DHT22;6627;50.920;12.050;2023-03-14T00:38:40;10.80;99.90
13123;DHT22;6627;50.920;12.050;2023-03-14T00:43:38;10.80;99.90
13123;DHT22;6627;50.920;12.050;2023-03-14T00:46:07;10.70;99.90
13123;DHT22;6627;50.920;12.050;2023-03-14T00:48:36;10.70;99.90
13123;DHT22;6627;50.920;12.050;2023-03-14T00:51:05;10.80;99.90
13123;DHT22;6627;50.920;12.050;2023-03-14T00:56:06;10.90;99.90
13123;DHT22;6627;50.920;12.050;2023-03-14T00:58:35;10.70;99.90
13123;DHT22;6627;50.920;12.050;2023-03-14T01:01:06;10.70;99.90
13123;DHT22;6627;50.920;12.050;2023-03-14T01:03:35;10.90;99.90
13123;DHT22;6627;50.920;12.050;2023-03-14T01:06:11;11.00;99.90
13123;DHT22;6627;50.920;12.050;2023-03-14T01:08:39;11.10;99.90
13123;DHT22;6627;50.920;12.050;2023-03-14T01:11:08;11.10;99.90
13123;DHT22;6627;50.920;12.050;2023-03-14T01:13:38;11.00;99.90
13123;DHT22;6627;50.920;12.050;2023-03-14T01:16:08;11.10;99.90
13123;DHT22;6627;50.920;12.050;2023-03-14T01:18:39;11.10;99.90
13123;DHT22;6627;50.920;12.050;2023-03-14T01:21:10;11.00;99.90
13123;DHT22;6627;50.920;12.050;2023-03-14T01:23:40;11.00;99.90
13123;DHT22;6627;50.920;12.050;2023-03-14T01:26:09;11.00;99.90
13123;DHT22;6627;50.920;12.050;2023-03-14T01:28:37;11.00;99.90
13123;DHT22;6627;50.920;12.050;2023-03-14T01:31:06;11.00;99.90
13123;DHT22;6627;50.920;12.050;2023-03-14T01:33:34;11.00;99.90
13123;DHT22;6627;50.920;12.050;2023-03-14T01:36:05;11.00;99.90
13123;DHT22;6627;50.920;12.050;2023-03-14T01:38:35;11.00;99.90
13123;DHT22;6627;50.920;12.050;2023-03-14T01:41:04;10.90;99.90
13123;DHT22;6627;50.920;12.050;2023-03-14T01:43:32;11.00;99.90
13123;DHT22;6627;50.920;12.050;2023-03-14T01:46:19;10.90;99.90
13123;DHT22;6627;50.920;12.050;2023-03-14T01:51:29;10.90;99.90
13123;DHT22;6627;50.920;12.050;2023-03-14T01:54:09;11.00;99.90
13123;DHT22;6627;50.920;12.050;2023-03-14T01:56:45;10.90;99.90
13123;DHT22;6627;50.920;12.050;2023-03-14T01:59:16;10.90;99.90
13123;DHT22;6627;50.920;12.050;2023-03-14T02:04:14;10.90;99.90
13123;DHT22;6627;50.920;12.050;2023-03-14T02:06:51;10.90;99.90
13123;DHT22;6627;50.920;12.050;2023-03-14T02:11:51;10.80;99.90
13123;DHT22;6627;50.920;12.050;2023-03-14T02:14:30;10.80;99.90
13123;DHT22;6627;50.920;12.050;2023-03-14T02:17:00;10.80;99.90
13123;DHT22;6627;50.920;12.050;2023-03-14T02:19:47;10.70;99.90
13123;DHT22;6627;50.920;12.050;2023-03-14T02:22:22;10.80;99.90
13123;DHT22;6627;50.920;12.050;2023-03-14T02:24:57;10.60;99.90
13123;DHT22;6627;50.920;12.050;2023-03-14T02:27:36;10.60;99.90
13123;DHT22;6627;50.920;12.050;2023-03-14T02:30:06;10.80;99.90
13123;DHT22;6627;50.920;12.050;2023-03-14T02:32:39;10.80;99.90
13123;DHT22;6627;50.920;12.050;2023-03-14T02:35:12;10.80;99.90
13123;DHT22;6627;50.920;12.050;2023-03-14T02:37:47;10.70;99.90
13123;DHT22;6627;50.920;12.050;2023-03-14T02:40:18;10.70;99.90
13123;DHT22;6627;50.920;12.050;2023-03-14T02:42:47;10.80;99.90
13123;DHT22;6627;50.920;12.050;2023-03-14T02:45:36;10.80;99.90
13123;DHT22;6627;50.920;12.050;2023-03-14T02:48:09;10.70;99.90
13123;DHT22;6627;50.920;12.050;2023-03-14T02:50:41;10.60;99.90
13123;DHT22;6627;50.920;12.050;2023-03-14T02:53:12;10.70;99.90
13123;DHT22;6627;50.920;12.050;2023-03-14T02:58:15;10.80;99.90
13123;DHT22;6627;50.920;12.050;2023-03-14T03:00:42;10.70;99.90
13123;DHT22;6627;50.920;12.050;2023-03-14T03:03:10;10.80;99.90
13123;DHT22;6627;50.920;12.050;2023-03-14T03:05:38;10.80;99.90
13123;DHT22;6627;50.920;12.050;2023-03-14T03:08:05;10.80;99.90
13123;DHT22;6627;50.920;12.050;2023-03-14T03:10:33;10.80;99.90
13123;DHT22;6627;50.920;12.050;2023-03-14T03:13:00;10.70;99.90
13123;DHT22;6627;50.920;12.050;2023-03-14T03:15:29;10.80;99.90
13123;DHT22;6627;50.920;12.050;2023-03-14T03:20:24;10.80;99.90
13123;DHT22;6627;50.920;12.050;2023-03-14T03:22:51;10.70;99.90
13123;DHT22;6627;50.920;12.050;2023-03-14T03:25:18;10.80;99.90
13123;DHT22;6627;50.920;12.050;2023-03-14T03:27:45;10.80;99.90
13123;DHT22;6627;50.920;12.050;2023-03-14T03:30:13;10.70;99.90
13123;DHT22;6627;50.920;12.050;2023-03-14T03:32:42;10.70;99.90
13123;DHT22;6627;50.920;12.050;2023-03-14T03:35:10;10.70;99.90
13123;DHT22;6627;50.920;12.050;2023-03-14T03:37:37;10.70;99.90
13123;DHT22;6627;50.920;12.050;2023-03-14T03:40:06;10.90;99.90
13123;DHT22;6627;50.920;12.050;2023-03-14T03:42:35;10.80;99.90
13123;DHT22;6627;50.920;12.050;2023-03-14T03:45:03;10.80;99.90
13123;DHT22;6627;50.920;12.050;2023-03-14T03:47:31;10.80;99.90
13123;DHT22;6627;50.920;12.050;2023-03-14T03:49:59;10.90;99.90
13123;DHT22;6627;50.920;12.050;2023-03-14T03:54:54;10.80;99.90
13123;DHT22;6627;50.920;12.050;2023-03-14T03:57:21;10.80;99.90
13123;DHT22;6627;50.920;12.050;2023-03-14T03:59:49;10.70;99.90
13123;DHT22;6627;50.920;12.050;2023-03-14T04:04:43;10.70;99.90
13123;DHT22;6627;50.920;12.050;2023-03-14T04:07:11;10.70;99.90
13123;DHT22;6627;50.920;12.050;2023-03-14T04:09:39;10.70;99.90
13123;DHT22;6627;50.920;12.050;2023-03-14T04:12:07;10.60;99.90
13123;DHT22;6627;50.920;12.050;2023-03-14T04:14:34;10.60;99.90
13123;DHT22;6627;50.920;12.050;2023-03-14T04:17:01;10.80;99.90
13123;DHT22;6627;50.920;12.050;2023-03-14T04:19:28;10.80;62.40
13123;DHT22;6627;50.920;12.050;2023-03-14T04:21:55;10.50;99.90
13123;DHT22;6627;50.920;12.050;2023-03-14T04:24:24;10.60;99.90
13123;DHT22;6627;50.920;12.050;2023-03-14T04:34:14;10.50;1.00
13123;DHT22;6627;50.920;12.050;2023-03-14T04:36:41;10.60;1.00
13123;DHT22;6627;50.920;12.050;2023-03-14T04:39:08;10.60;1.00
13123;DHT22;6627;50.920;12.050;2023-03-14T04:41:36;10.60;99.90
13123;DHT22;6627;50.920;12.050;2023-03-14T04:44:04;10.70;68.10
13123;DHT22;6627;50.920;12.050;2023-03-14T04:46:31;10.50;1.00
13123;DHT22;6627;50.920;12.050;2023-03-14T04:48:58;10.50;99.90
13123;DHT22;6627;50.920;12.050;2023-03-14T04:51:25;10.30;1.00
13123;DHT22;6627;50.920;12.050;2023-03-14T04:53:53;10.50;51.50
13123;DHT22;6627;50.920;12.050;2023-03-14T05:21:04;10.40;1.00
13123;DHT22;6627;50.920;12.050;2023-03-14T05:23:31;10.40;26.70
13123;DHT22;6627;50.920;12.050;2023-03-14T05:25:58;10.40;99.90
13123;DHT22;6627;50.920;12.050;2023-03-14T05:28:25;10.50;97.70
13123;DHT22;6627;50.920;12.050;2023-03-14T05:30:52;10.40;1.00
13123;DHT22;6627;50.920;12.050;2023-03-14T05:33:21;10.40;99.90
13123;DHT22;6627;50.920;12.050;2023-03-14T05:35:48;10.40;1.00
13123;DHT22;6627;50.920;12.050;2023-03-14T05:38:15;10.40;99.90
13123;DHT22;6627;50.920;12.050;2023-03-14T05:40:42;10.50;1.00
13123;DHT22;6627;50.920;12.050;2023-03-14T05:45:39;10.50;1.00
13123;DHT22;6627;50.920;12.050;2023-03-14T05:48:07;10.50;99.90
13123;DHT22;6627;50.920;12.050;2023-03-14T05:50:35;10.60;99.90
13123;DHT22;6627;50.920;12.050;2023-03-14T05:53:02;10.60;1.00
13123;DHT22;6627;50.920;12.050;2023-03-14T05:55:30;10.60;99.90
13123;DHT22;6627;50.920;12.050;2023-03-14T05:57:57;10.60;1.00
13123;DHT22;6627;50.920;12.050;2023-03-14T06:00:26;10.60;1.00
13123;DHT22;6627;50.920;12.050;2023-03-14T06:02:53;10.50;93.10
13123;DHT22;6627;50.920;12.050;2023-03-14T06:05:21;10.60;1.00
13123;DHT22;6627;50.920;12.050;2023-03-14T06:07:50;10.70;1.00
13123;DHT22;6627;50.920;12.050;2023-03-14T06:10:17;10.70;1.00
13123;DHT22;6627;50.920;12.050;2023-03-14T06:12:44;10.70;99.90
13123;DHT22;6627;50.920;12.050;2023-03-14T06:15:11;10.60;99.90
13123;DHT22;6627;50.920;12.050;2023-03-14T06:17:38;10.60;1.00
13123;DHT22;6627;50.920;12.050;2023-03-14T06:20:06;10.60;1.00
13123;DHT22;6627;50.920;12.050;2023-03-14T06:22:34;10.60;99.90
13123;DHT22;6627;50.920;12.050;2023-03-14T06:25:02;10.80;1.00
13123;DHT22;6627;50.920;12.050;2023-03-14T06:27:30;10.70;1.00
13123;DHT22;6627;50.920;12.050;2023-03-14T06:29:57;10.70;1.00
13123;DHT22;6627;50.920;12.050;2023-03-14T06:34:52;10.70;99.90
13123;DHT22;6627;50.920;12.050;2023-03-14T06:37:20;10.70;99.90
13123;DHT22;6627;50.920;12.050;2023-03-14T06:39:47;10.80;1.00
13123;DHT22;6627;50.920;12.050;2023-03-14T06:42:15;10.70;1.00
13123;DHT22;6627;50.920;12.050;2023-03-14T06:44:42;10.80;1.00
13123;DHT22;6627;50.920;12.050;2023-03-14T06:47:10;10.80;99.90
13123;DHT22;6627;50.920;12.050;2023-03-14T06:49:37;10.90;99.90
13123;DHT22;6627;50.920;12.050;2023-03-14T06:52:04;10.90;1.00
13123;DHT22;6627;50.920;12.050;2023-03-14T06:54:31;11.00;1.00
13123;DHT22;6627;50.920;12.050;2023-03-14T06:56:59;10.90;1.00
13123;DHT22;6627;50.920;12.050;2023-03-14T07:01:55;11.00;1.00
13123;DHT22;6627;50.920;12.050;2023-03-14T07:04:22;11.00;99.90
13123;DHT22;6627;50.920;12.050;2023-03-14T07:06:49;11.00;1.00
13123;DHT22;6627;50.920;12.050;2023-03-14T07:09:17;11.00;1.00
13123;DHT22;6627;50.920;12.050;2023-03-14T07:11:44;11.00;99.90
13123;DHT22;6627;50.920;12.050;2023-03-14T07:14:11;11.00;99.90
13123;DHT22;6627;50.920;12.050;2023-03-14T07:16:43;11.10;99.90
13123;DHT22;6627;50.920;12.050;2023-03-14T07:19:10;11.20;99.90
13123;DHT22;6627;50.920;12.050;2023-03-14T07:21:38;11.20;99.90
13123;DHT22;6627;50.920;12.050;2023-03-14T07:24:06;11.10;99.90
13123;DHT22;6627;50.920;12.050;2023-03-14T07:26:33;11.10;99.90
13123;DHT22;6627;50.920;12.050;2023-03-14T07:29:01;11.20;1.00
13123;DHT22;6627;50.920;12.050;2023-03-14T07:31:30;11.20;1.00
13123;DHT22;6627;50.920;12.050;2023-03-14T07:36:31;11.20;1.00
13123;DHT22;6627;50.920;12.050;2023-03-14T07:38:59;11.30;1.00
13123;DHT22;6627;50.920;12.050;2023-03-14T07:41:26;11.30;99.90
13123;DHT22;6627;50.920;12.050;2023-03-14T07:43:54;11.30;1.00
13123;DHT22;6627;50.920;12.050;2023-03-14T07:46:21;11.30;1.00
13123;DHT22;6627;50.920;12.050;2023-03-14T07:48:48;11.40;99.90
13123;DHT22;6627;50.920;12.050;2023-03-14T07:51:17;11.40;99.90
13123;DHT22;6627;50.920;12.050;2023-03-14T07:53:44;11.40;99.90
13123;DHT22;6627;50.920;12.050;2023-03-14T07:56:11;11.40;1.00
13123;DHT22;6627;50.920;12.050;2023-03-14T07:58:39;11.40;1.00
13123;DHT22;6627;50.920;12.050;2023-03-14T08:01:06;11.40;1.00
13123;DHT22;6627;50.920;12.050;2023-03-14T08:03:33;11.50;1.00
13123;DHT22;6627;50.920;12.050;2023-03-14T08:06:00;11.50;1.00
13123;DHT22;6627;50.920;12.050;2023-03-14T08:08:28;11.50;1.00
13123;DHT22;6627;50.920;12.050;2023-03-14T08:10:56;11.40;1.00
13123;DHT22;6627;50.920;12.050;2023-03-14T08:13:29;11.50;99.90
13123;DHT22;6627;50.920;12.050;2023-03-14T08:15:56;11.50;99.90
13123;DHT22;6627;50.920;12.050;2023-03-14T08:18:23;11.40;99.90
13123;DHT22;6627;50.920;12.050;2023-03-14T08:20:50;11.40;99.90
13123;DHT22;6627;50.920;12.050;2023-03-14T08:23:17;11.40;99.90
13123;DHT22;6627;50.920;12.050;2023-03-14T08:25:48;11.40;99.90
13123;DHT22;6627;50.920;12.050;2023-03-14T08:28:16;11.40;99.90
13123;DHT22;6627;50.920;12.050;2023-03-14T08:30:44;11.40;99.90
13123;DHT22;6627;50.920;12.050;2023-03-14T08:33:11;11.40;99.90
13123;DHT22;6627;50.920;12.050;2023-03-14T08:35:39;11.50;27.60
13123;DHT22;6627;50.920;12.050;2023-03-14T08:38:06;11.50;24.20
13123;DHT22;6627;50.920;12.050;2023-03-14T08:40:33;11.50;1.00
13123;DHT22;6627;50.920;12.050;2023-03-14T08:43:01;11.50;1.00
13123;DHT22;6627;50.920;12.050;2023-03-14T08:45:28;11.50;1.00
13123;DHT22;6627;50.920;12.050;2023-03-14T08:47:57;11.50;1.00
13123;DHT22;6627;50.920;12.050;2023-03-14T08:50:25;11.50;1.00
13123;DHT22;6627;50.920;12.050;2023-03-14T08:52:52;11.50;1.00
13123;DHT22;6627;50.920;12.050;2023-03-14T08:55:19;11.50;1.00
13123;DHT22;6627;50.920;12.050;2023-03-14T08:57:46;11.40;1.00
13123;DHT22;6627;50.920;12.050;2023-03-14T09:00:16;11.50;1.00
13123;DHT22;6627;50.920;12.050;2023-03-14T09:02:44;11.50;1.00
13123;DHT22;6627;50.920;12.050;2023-03-14T09:05:12;11.60;1.00
13123;DHT22;6627;50.920;12.050;2023-03-14T09:07:40;11.60;1.00
13123;DHT22;6627;50.920;12.050;2023-03-14T09:12:37;11.70;99.90
13123;DHT22;6627;50.920;12.050;2023-03-14T09:15:05;11.70;99.90
13123;DHT22;6627;50.920;12.050;2023-03-14T09:17:34;11.70;99.90
13123;DHT22;6627;50.920;12.050;2023-03-14T09:20:01;11.80;99.90
13123;DHT22;6627;50.920;12.050;2023-03-14T09:22:33;11.80;99.90
13123;DHT22;6627;50.920;12.050;2023-03-14T09:25:01;11.90;99.90
13123;DHT22;6627;50.920;12.050;2023-03-14T09:27:29;11.90;99.90
13123;DHT22;6627;50.920;12.050;2023-03-14T09:29:56;11.90;98.30
13123;DHT22;6627;50.920;12.050;2023-03-14T09:32:23;12.00;25.50
13123;DHT22;6627;50.920;12.050;2023-03-14T09:34:51;12.00;1.00
13123;DHT22;6627;50.920;12.050;2023-03-14T09:37:19;12.00;1.00
13123;DHT22;6627;50.920;12.050;2023-03-14T09:39:46;12.10;1.00
13123;DHT22;6627;50.920;12.050;2023-03-14T09:42:17;12.10;1.00
13123;DHT22;6627;50.920;12.050;2023-03-14T09:44:53;12.20;1.00
13123;DHT22;6627;50.920;12.050;2023-03-14T09:47:23;12.30;1.00
13123;DHT22;6627;50.920;12.050;2023-03-14T09:49:53;12.40;1.00
13123;DHT22;6627;50.920;12.050;2023-03-14T09:52:24;12.40;1.00
13123;DHT22;6627;50.920;12.050;2023-03-14T09:54:56;12.50;99.90
13123;DHT22;6627;50.920;12.050;2023-03-14T09:57:27;12.60;1.00
13123;DHT22;6627;50.920;12.050;2023-03-14T10:00:03;12.80;99.90
13123;DHT22;6627;50.920;12.050;2023-03-14T10:02:39;12.90;99.90
13123;DHT22;6627;50.920;12.050;2023-03-14T10:05:16;13.00;99.90
13123;DHT22;6627;50.920;12.050;2023-03-14T10:07:44;13.00;99.90
13123;DHT22;6627;50.920;12.050;2023-03-14T10:10:14;13.00;95.60
13123;DHT22;6627;50.920;12.050;2023-03-14T10:12:46;12.90;18.60
13123;DHT22;6627;50.920;12.050;2023-03-14T10:15:25;12.90;1.00
13123;DHT22;6627;50.920;12.050;2023-03-14T10:17:54;12.90;1.00
13123;DHT22;6627;50.920;12.050;2023-03-14T10:20:32;13.00;1.00
13123;DHT22;6627;50.920;12.050;2023-03-14T10:23:03;12.90;1.00
13123;DHT22;6627;50.920;12.050;2023-03-14T10:25:34;12.80;1.00
13123;DHT22;6627;50.920;12.050;2023-03-14T10:28:04;12.80;1.00
13123;DHT22;6627;50.920;12.050;2023-03-14T10:30:40;12.70;1.00
13123;DHT22;6627;50.920;12.050;2023-03-14T10:33:19;12.70;1.00
13123;DHT22;6627;50.920;12.050;2023-03-14T10:35:54;12.70;1.00
13123;DHT22;6627;50.920;12.050;2023-03-14T10:38:24;12.70;1.00
13123;DHT22;6627;50.920;12.050;2023-03-14T10:40:54;12.60;1.00
13123;DHT22;6627;50.920;12.050;2023-03-14T10:43:24;12.50;1.00
13123;DHT22;6627;50.920;12.050;2023-03-14T10:48:30;12.50;1.00
13123;DHT22;6627;50.920;12.050;2023-03-14T10:51:05;12.50;1.00
13123;DHT22;6627;50.920;12.050;2023-03-14T10:53:39;12.50;99.90
13123;DHT22;6627;50.920;12.050;2023-03-14T10:56:12;12.40;1.00
13123;DHT22;6627;50.920;12.050;2023-03-14T10:58:42;12.50;1.00
13123;DHT22;6627;50.920;12.050;2023-03-14T11:04:15;12.60;1.00
13123;DHT22;6627;50.920;12.050;2023-03-14T11:06:56;12.50;1.00
13123;DHT22;6627;50.920;12.050;2023-03-14T11:09:34;12.50;1.00
13123;DHT22;6627;50.920;12.050;2023-03-14T11:14:59;12.40;1.00
13123;DHT22;6627;50.920;12.050;2023-03-14T11:17:41;12.30;1.00
13123;DHT22;6627;50.920;12.050;2023-03-14T11:20:36;12.30;1.00
13123;DHT22;6627;50.920;12.050;2023-03-14T11:23:14;12.20;1.00
13123;DHT22;6627;50.920;12.050;2023-03-14T11:25:49;12.10;1.00
13123;DHT22;6627;50.920;12.050;2023-03-14T11:28:27;12.20;24.20
13123;DHT22;6627;50.920;12.050;2023-03-14T11:31:05;12.20;1.00
13123;DHT22;6627;50.920;12.050;2023-03-14T11:33:43;12.30;1.00
13123;DHT22;6627;50.920;12.050;2023-03-14T11:36:20;12.40;1.00
13123;DHT22;6627;50.920;12.050;2023-03-14T11:41:26;12.60;1.00
13123;DHT22;6627;50.920;12.050;2023-03-14T11:44:01;12.60;1.00
13123;DHT22;6627;50.920;12.050;2023-03-14T11:46:41;12.70;1.00
13123;DHT22;6627;50.920;12.050;2023-03-14T11:49:21;12.90;1.00
13123;DHT22;6627;50.920;12.050;2023-03-14T11:51:59;13.30;1.00
13123;DHT22;6627;50.920;12.050;2023-03-14T11:54:35;13.30;1.00
13123;DHT22;6627;50.920;12.050;2023-03-14T11:57:11;13.10;1.00
13123;DHT22;6627;50.920;12.050;2023-03-14T11:59:48;13.10;1.00
13123;DHT22;6627;50.920;12.050;2023-03-14T12:02:25;13.20;1.00
13123;DHT22;6627;50.920;12.050;2023-03-14T12:11:00;13.40;99.90
13123;DHT22;6627;50.920;12.050;2023-03-14T12:13:33;13.40;99.90
13123;DHT22;6627;50.920;12.050;2023-03-14T12:16:05;13.40;99.90
13123;DHT22;6627;50.920;12.050;2023-03-14T12:18:53;13.30;99.90
13123;DHT22;6627;50.920;12.050;2023-03-14T12:21:21;13.20;99.90
13123;DHT22;6627;50.920;12.050;2023-03-14T12:23:51;13.20;99.90
13123;DHT22;6627;50.920;12.050;2023-03-14T12:26:23;13.20;99.90
13123;DHT22;6627;50.920;12.050;2023-03-14T12:29:09;13.20;99.90
13123;DHT22;6627;50.920;12.050;2023-03-14T12:31:43;13.20;99.90
13123;DHT22;6627;50.920;12.050;2023-03-14T12:34:30;13.30;87.90
13123;DHT22;6627;50.920;12.050;2023-03-14T12:37:06;13.80;99.90
13123;DHT22;6627;50.920;12.050;2023-03-14T12:39:55;13.80;23.60
13123;DHT22;6627;50.920;12.050;2023-03-14T12:42:45;14.00;1.00
13123;DHT22;6627;50.920;12.050;2023-03-14T12:45:26;13.90;1.00
13123;DHT22;6627;50.920;12.050;2023-03-14T12:48:08;13.70;1.00
13123;DHT22;6627;50.920;12.050;2023-03-14T12:50:41;13.70;1.00
13123;DHT22;6627;50.920;12.050;2023-03-14T12:56:21;13.50;1.00
13123;DHT22;6627;50.920;12.050;2023-03-14T12:59:14;13.40;1.00
13123;DHT22;6627;50.920;12.050;2023-03-14T13:02:00;13.40;1.00
13123;DHT22;6627;50.920;12.050;2023-03-14T13:04:34;13.30;1.00
13123;DHT22;6627;50.920;12.050;2023-03-14T13:07:04;13.30;1.00
13123;DHT22;6627;50.920;12.050;2023-03-14T13:10:00;13.30;1.00
13123;DHT22;6627;50.920;12.050;2023-03-14T13:12:37;13.40;1.00
13123;DHT22;6627;50.920;12.050;2023-03-14T13:15:23;13.50;1.00
13123;DHT22;6627;50.920;12.050;2023-03-14T13:17:56;13.60;1.00
13123;DHT22;6627;50.920;12.050;2023-03-14T13:20:30;13.70;1.00
13123;DHT22;6627;50.920;12.050;2023-03-14T13:23:01;13.80;1.00
13123;DHT22;6627;50.920;12.050;2023-03-14T13:25:33;13.90;1.00
13123;DHT22;6627;50.920;12.050;2023-03-14T13:28:02;13.90;1.00
13123;DHT22;6627;50.920;12.050;2023-03-14T13:30:42;13.90;1.00
13123;DHT22;6627;50.920;12.050;2023-03-14T13:33:14;14.10;1.00
13123;DHT22;6627;50.920;12.050;2023-03-14T13:35:45;14.00;1.00
13123;DHT22;6627;50.920;12.050;2023-03-14T13:38:17;14.00;1.00
13123;DHT22;6627;50.920;12.050;2023-03-14T13:40:49;14.00;1.00
13123;DHT22;6627;50.920;12.050;2023-03-14T13:43:19;14.10;99.90
13123;DHT22;6627;50.920;12.050;2023-03-14T13:45:54;14.30;99.90
13123;DHT22;6627;50.920;12.050;2023-03-14T13:48:27;14.40;99.90
13123;DHT22;6627;50.920;12.050;2023-03-14T13:50:59;14.20;99.90
13123;DHT22;6627;50.920;12.050;2023-03-14T13:53:30;14.20;99.90
13123;DHT22;6627;50.920;12.050;2023-03-14T13:56:01;14.00;99.90
13123;DHT22;6627;50.920;12.050;2023-03-14T13:58:31;14.00;99.90
13123;DHT22;6627;50.920;12.050;2023-03-14T14:01:12;13.90;99.90
13123;DHT22;6627;50.920;12.050;2023-03-14T14:03:53;13.90;99.90
13123;DHT22;6627;50.920;12.050;2023-03-14T14:06:29;13.90;99.90
13123;DHT22;6627;50.920;12.050;2023-03-14T14:09:00;13.80;99.90
13123;DHT22;6627;50.920;12.050;2023-03-14T14:11:38;13.70;99.90
13123;DHT22;6627;50.920;12.050;2023-03-14T14:14:13;13.60;99.90
13123;DHT22;6627;50.920;12.050;2023-03-14T14:16:46;13.60;99.90
13123;DHT22;6627;50.920;12.050;2023-03-14T14:19:16;13.60;99.90
13123;DHT22;6627;50.920;12.050;2023-03-14T14:21:46;13.70;99.90
13123;DHT22;6627;50.920;12.050;2023-03-14T14:24:14;13.60;99.90
13123;DHT22;6627;50.920;12.050;2023-03-14T14:26:47;13.60;99.90
13123;DHT22;6627;50.920;12.050;2023-03-14T14:29:25;13.50;99.90
13123;DHT22;6627;50.920;12.050;2023-03-14T14:32:12;13.50;99.90
13123;DHT22;6627;50.920;12.050;2023-03-14T14:34:42;13.40;99.90
13123;DHT22;6627;50.920;12.050;2023-03-14T14:37:19;13.40;99.90
13123;DHT22;6627;50.920;12.050;2023-03-14T14:39:48;13.30;99.90
13123;DHT22;6627;50.920;12.050;2023-03-14T14:42:18;13.20;99.90
13123;DHT22;6627;50.920;12.050;2023-03-14T14:47:21;12.90;99.90
13123;DHT22;6627;50.920;12.050;2023-03-14T14:49:52;12.80;99.90
13123;DHT22;6627;50.920;12.050;2023-03-14T14:52:21;12.70;1.00
13123;DHT22;6627;50.920;12.050;2023-03-14T14:55:00;12.60;1.00
13123;DHT22;6627;50.920;12.050;2023-03-14T14:57:32;12.50;1.00
13123;DHT22;6627;50.920;12.050;2023-03-14T15:02:40;12.20;99.90
13123;DHT22;6627;50.920;12.050;2023-03-14T15:05:13;11.90;99.90
13123;DHT22;6627;50.920;12.050;2023-03-14T15:07:41;11.60;99.90
13123;DHT22;6627;50.920;12.050;2023-03-14T15:10:11;11.50;99.90
13123;DHT22;6627;50.920;12.050;2023-03-14T15:12:39;11.40;99.90
13123;DHT22;6627;50.920;12.050;2023-03-14T15:15:07;11.30;99.90
13123;DHT22;6627;50.920;12.050;2023-03-14T15:17:35;11.20;1.00
13123;DHT22;6627;50.920;12.050;2023-03-14T15:20:10;11.10;99.90
13123;DHT22;6627;50.920;12.050;2023-03-14T15:22:40;11.00;99.90
13123;DHT22;6627;50.920;12.050;2023-03-14T15:27:38;8.60;99.90
13123;DHT22;6627;50.920;12.050;2023-03-14T15:30:11;8.30;99.90
13123;DHT22;6627;50.920;12.050;2023-03-14T15:32:40;8.20;99.90
13123;DHT22;6627;50.920;12.050;2023-03-14T15:35:09;8.20;99.90
13123;DHT22;6627;50.920;12.050;2023-03-14T15:37:36;8.20;99.90
13123;DHT22;6627;50.920;12.050;2023-03-14T15:40:04;8.20;99.90
13123;DHT22;6627;50.920;12.050;2023-03-14T15:42:38;8.20;99.90
13123;DHT22;6627;50.920;12.050;2023-03-14T15:45:06;8.20;99.90
13123;DHT22;6627;50.920;12.050;2023-03-14T15:47:34;8.20;99.90
13123;DHT22;6627;50.920;12.050;2023-03-14T15:50:02;8.10;99.90
13123;DHT22;6627;50.920;12.050;2023-03-14T15:52:31;8.10;99.90
13123;DHT22;6627;50.920;12.050;2023-03-14T15:54:58;8.20;99.90
13123;DHT22;6627;50.920;12.050;2023-03-14T15:59:53;8.30;99.90
13123;DHT22;6627;50.920;12.050;2023-03-14T16:02:20;8.20;99.90
13123;DHT22;6627;50.920;12.050;2023-03-14T16:04:47;8.10;99.90
13123;DHT22;6627;50.920;12.050;2023-03-14T16:07:14;8.00;99.90
13123;DHT22;6627;50.920;12.050;2023-03-14T16:09:43;7.80;99.90
13123;DHT22;6627;50.920;12.050;2023-03-14T16:12:10;7.80;99.90
13123;DHT22;6627;50.920;12.050;2023-03-14T16:14:37;7.70;99.90
13123;DHT22;6627;50.920;12.050;2023-03-14T16:17:08;7.40;99.90
13123;DHT22;6627;50.920;12.050;2023-03-14T16:19:37;7.10;99.90
13123;DHT22;6627;50.920;12.050;2023-03-14T16:22:04;7.00;99.90
13123;DHT22;6627;50.920;12.050;2023-03-14T16:24:31;6.60;99.90
13123;DHT22;6627;50.920;12.050;2023-03-14T16:26:59;6.40;1.00
13123;DHT22;6627;50.920;12.050;2023-03-14T16:29:27;5.90;90.60
13123;DHT22;6627;50.920;12.050;2023-03-14T16:31:55;5.80;1.00
13123;DHT22;6627;50.920;12.050;2023-03-14T16:34:22;5.40;99.90
13123;DHT22;6627;50.920;12.050;2023-03-14T16:36:49;5.50;99.90
13123;DHT22;6627;50.920;12.050;2023-03-14T16:39:17;5.60;99.90
13123;DHT22;6627;50.920;12.050;2023-03-14T16:41:45;5.50;1.00
13123;DHT22;6627;50.920;12.050;2023-03-14T16:44:13;5.40;99.90
13123;DHT22;6627;50.920;12.050;2023-03-14T16:46:40;5.20;99.90
13123;DHT22;6627;50.920;12.050;2023-03-14T16:49:08;5.10;99.90
13123;DHT22;6627;50.920;12.050;2023-03-14T16:51:35;5.20;99.90
13123;DHT22;6627;50.920;12.050;2023-03-14T16:54:02;4.80;99.90
13123;DHT22;6627;50.920;12.050;2023-03-14T16:56:29;4.80;99.90
13123;DHT22;6627;50.920;12.050;2023-03-14T16:58:56;4.90;99.90
13123;DHT22;6627;50.920;12.050;2023-03-14T17:01:24;5.00;99.90
13123;DHT22;6627;50.920;12.050;2023-03-14T17:03:52;5.10;99.90
13123;DHT22;6627;50.920;12.050;2023-03-14T17:06:21;5.10;99.90
13123;DHT22;6627;50.920;12.050;2023-03-14T17:08:51;4.80;99.90
13123;DHT22;6627;50.920;12.050;2023-03-14T17:11:19;4.90;99.90
13123;DHT22;6627;50.920;12.050;2023-03-14T17:13:47;5.00;99.90
13123;DHT22;6627;50.920;12.050;2023-03-14T17:16:14;5.10;99.90
13123;DHT22;6627;50.920;12.050;2023-03-14T17:18:42;5.10;99.90
13123;DHT22;6627;50.920;12.050;2023-03-14T17:21:09;5.10;99.90
13123;DHT22;6627;50.920;12.050;2023-03-14T17:23:37;5.10;96.30
13123;DHT22;6627;50.920;12.050;2023-03-14T17:26:04;5.00;1.00
13123;DHT22;6627;50.920;12.050;2023-03-14T17:28:33;4.80;37.50
13123;DHT22;6627;50.920;12.050;2023-03-14T17:33:31;5.00;1.00
13123;DHT22;6627;50.920;12.050;2023-03-14T17:36:00;5.00;1.00
13123;DHT22;6627;50.920;12.050;2023-03-14T17:38:27;4.90;1.00
13123;DHT22;6627;50.920;12.050;2023-03-14T17:40:55;4.90;1.00
13123;DHT22;6627;50.920;12.050;2023-03-14T17:43:22;4.90;1.00